Hobart Regional Airport Hobart US
ICAO: KHBR
IATA: HBR
Category: Medium
Scheduled Services: No

Elevation: 1563 ft
TransAlt. 18000 ft.

Airport Communications:
ALTUS APP:125.1
ASOS:133.325
ALTUS DEP:125.1
MC ALESTER RDO:122.2
CTAF/UNICOM:122.8

KHBR Zoom In..

Runways:

(A) RW 03 length 5297 ft width 150 ft
---- / hdg 38

(B) RW 12 length 5295 ft width 150 ft
---- / hdg 128

(C) RW 17 length 5507 ft width 100 ft
---- / hdg 173

(D) RW 21 length 5297 ft width 150 ft
---- / hdg 218

(E) RW 30 length 5295 ft width 150 ft
---- / hdg 308

(F) RW 35 length 5507 ft width 100 ft
---- / hdg 353

Location; KHBR
Day. 07 / Time. 14.53 Zulu
* Altimeter: 30.00
* Temperature: 27° c. 80.6°f.
* Wind from: 180° Speed 12 kn.
Dewpoint: 20° c.
Visibility: 10 Statute Miles.
Clouds: Clear (automated report).

KHBR 071453Z AUTO 18012KT 10SM CLR 27/20 A3000 RMK AO2 SLP137 T02670200 51016

Going to: --> -->


Wind From 180°
Speed 12 kn.

 
 
jpsmedia worldairports.se 2020   terms of use